createdAt,value
2022-11-15T00:01:31.080Z,131.33
2022-11-15T00:03:59.815Z,120.20
2022-11-15T00:06:28.442Z,139.07
2022-11-15T00:08:57.293Z,136.20
2022-11-15T00:11:25.968Z,125.30
2022-11-15T00:13:58.139Z,123.37
2022-11-15T00:16:27.331Z,141.80
2022-11-15T00:18:56.022Z,138.93
2022-11-15T00:21:24.865Z,142.13
2022-11-15T00:23:53.572Z,130.83
2022-11-15T00:26:22.227Z,126.10
2022-11-15T00:28:50.921Z,127.13
2022-11-15T00:31:21.049Z,144.57
2022-11-15T00:33:49.817Z,139.27
2022-11-15T00:36:18.550Z,148.70
2022-11-15T00:38:47.247Z,137.63
2022-11-15T00:41:15.981Z,134.47
2022-11-15T00:43:45.065Z,139.10
2022-11-15T00:46:13.980Z,127.63
2022-11-15T00:48:44.150Z,128.60
2022-11-15T00:51:12.910Z,122.73
2022-11-15T00:53:41.634Z,133.67
2022-11-15T00:56:10.452Z,127.23
2022-11-15T00:58:39.065Z,132.60
2022-11-15T01:01:12.653Z,133.60
2022-11-15T01:03:43.744Z,133.27
2022-11-15T01:06:12.745Z,134.73
2022-11-15T01:08:42.207Z,119.63
2022-11-15T01:11:14.098Z,131.77
2022-11-15T01:13:43.052Z,138.47
2022-11-15T01:16:14.087Z,126.33
2022-11-15T01:18:44.332Z,117.63
2022-11-15T01:21:14.966Z,129.20
2022-11-15T01:23:43.701Z,144.50
2022-11-15T01:26:14.226Z,128.63
2022-11-15T01:28:43.828Z,133.00
2022-11-15T01:31:16.073Z,137.23
2022-11-15T01:33:46.536Z,123.33
2022-11-15T01:36:17.550Z,152.07
2022-11-15T01:38:46.449Z,129.97
2022-11-15T01:41:20.256Z,138.37
2022-11-15T01:43:51.421Z,138.87
2022-11-15T01:46:33.143Z,120.67
2022-11-15T01:49:07.784Z,135.53
2022-11-15T01:51:36.629Z,127.53
2022-11-15T01:54:09.947Z,143.33
2022-11-15T01:56:43.163Z,128.80
2022-11-15T01:59:13.852Z,126.87
2022-11-15T02:01:42.721Z,109.10
2022-11-15T02:04:15.965Z,134.93
2022-11-15T02:06:46.760Z,120.23
2022-11-15T02:09:16.117Z,128.07
2022-11-15T02:11:46.057Z,107.77
2022-11-15T02:14:16.265Z,113.53
2022-11-15T02:16:55.316Z,130.73
2022-11-15T02:19:43.284Z,125.63
2022-11-15T02:22:26.592Z,156.53
2022-11-15T02:25:12.310Z,152.23
2022-11-15T02:28:12.964Z,133.77
2022-11-15T02:30:47.131Z,153.40
2022-11-15T02:33:28.698Z,154.57
2022-11-15T02:36:02.120Z,187.57
2022-11-15T02:38:39.229Z,136.50
2022-11-15T02:41:12.263Z,164.20
2022-11-15T02:43:57.600Z,164.70
2022-11-15T02:46:52.969Z,149.17
2022-11-15T02:49:22.345Z,163.63
2022-11-15T02:51:53.076Z,151.20
2022-11-15T02:54:25.749Z,167.47
2022-11-15T02:56:56.895Z,145.40
2022-11-15T02:59:51.564Z,166.27
2022-11-15T03:02:33.400Z,158.33
2022-11-15T03:05:12.002Z,170.73
2022-11-15T03:07:45.345Z,178.60
2022-11-15T03:10:21.068Z,183.67
2022-11-15T03:12:56.426Z,189.17
2022-11-15T03:15:30.571Z,227.53
2022-11-15T03:18:04.443Z,206.20
2022-11-15T03:20:34.550Z,203.20
2022-11-15T03:23:06.507Z,202.67
2022-11-15T03:25:38.630Z,228.90
2022-11-15T03:28:11.465Z,218.77
2022-11-15T03:30:42.109Z,199.30
2022-11-15T03:33:13.526Z,205.03
2022-11-15T03:35:45.671Z,212.10
2022-11-15T03:38:19.399Z,218.27
2022-11-15T03:40:55.610Z,228.10
2022-11-15T03:43:32.125Z,225.33
2022-11-15T03:46:04.485Z,212.73
2022-11-15T03:48:39.265Z,223.13
2022-11-15T03:51:08.528Z,198.87
2022-11-15T03:53:37.200Z,231.00
2022-11-15T03:56:06.241Z,216.57
2022-11-15T03:58:35.058Z,197.47
2022-11-15T04:01:03.878Z,200.07
2022-11-15T04:03:34.308Z,188.33
2022-11-15T04:06:03.254Z,169.87
2022-11-15T04:08:31.944Z,139.37
2022-11-15T04:11:02.344Z,136.57
2022-11-15T04:13:31.625Z,155.60
2022-11-15T04:16:00.520Z,156.33
2022-11-15T04:18:29.193Z,161.07
2022-11-15T04:21:16.720Z,173.13
2022-11-15T04:24:02.004Z,180.37
2022-11-15T04:26:30.801Z,162.53
2022-11-15T04:29:16.666Z,187.70
2022-11-15T04:31:45.365Z,177.27
2022-11-15T04:34:14.058Z,178.87
2022-11-15T04:37:01.487Z,172.13
2022-11-15T04:39:30.285Z,167.83
2022-11-15T04:41:58.998Z,161.73
2022-11-15T04:44:27.685Z,171.03
2022-11-15T04:46:56.399Z,188.93
2022-11-15T04:49:25.105Z,197.33
2022-11-15T04:51:55.210Z,209.27
2022-11-15T04:54:24.149Z,229.33
2022-11-15T04:56:52.973Z,223.23
2022-11-15T04:59:21.683Z,202.70
2022-11-15T05:01:50.379Z,175.27
2022-11-15T05:04:20.526Z,191.50
2022-11-15T05:06:51.115Z,222.90
2022-11-15T05:09:22.767Z,219.40
2022-11-15T05:11:51.448Z,215.50
2022-11-15T05:14:20.196Z,174.30
2022-11-15T05:16:49.309Z,160.27
2022-11-15T05:19:17.984Z,133.93
2022-11-15T05:21:46.712Z,148.23
2022-11-15T05:24:15.477Z,155.53
2022-11-15T05:26:45.552Z,161.70
2022-11-15T05:29:14.202Z,164.30
2022-11-15T05:31:44.337Z,167.63
2022-11-15T05:34:13.197Z,158.73
2022-11-15T05:36:45.804Z,141.27
2022-11-15T05:39:14.586Z,142.13
2022-11-15T05:41:49.215Z,132.67
2022-11-15T05:44:22.123Z,143.67
2022-11-15T05:46:54.435Z,137.40
2022-11-15T05:49:27.289Z,167.70
2022-11-15T05:51:56.444Z,139.57
2022-11-15T05:54:27.087Z,130.00
2022-11-15T05:56:57.334Z,125.43
2022-11-15T05:59:26.571Z,148.37
2022-11-15T06:01:55.400Z,89.40
2022-11-15T06:04:24.156Z,107.83
2022-11-15T06:06:52.974Z,103.03
2022-11-15T06:09:25.185Z,119.10
2022-11-15T06:11:54.278Z,116.07
2022-11-15T06:14:24.804Z,125.70
2022-11-15T06:16:53.728Z,132.57
2022-11-15T06:19:22.735Z,119.83
2022-11-15T06:21:51.513Z,141.50
2022-11-15T06:24:20.451Z,155.33
2022-11-15T06:26:49.461Z,168.90
2022-11-15T06:29:18.243Z,158.63
2022-11-15T06:31:48.366Z,175.30
2022-11-15T06:34:17.005Z,166.50
2022-11-15T06:36:45.810Z,143.20
2022-11-15T06:39:14.579Z,137.87
2022-11-15T06:41:43.255Z,153.33
2022-11-15T06:44:11.870Z,137.80
2022-11-15T06:46:40.525Z,163.33
2022-11-15T06:49:10.526Z,139.30
2022-11-15T06:51:39.223Z,133.10
2022-11-15T06:54:08.003Z,158.60
2022-11-15T06:56:36.993Z,189.40
2022-11-15T06:59:05.762Z,164.77
2022-11-15T07:01:34.537Z,198.50
2022-11-15T07:04:03.245Z,177.27
2022-11-15T07:06:33.272Z,168.67
2022-11-15T07:09:03.940Z,170.73
2022-11-15T07:11:32.627Z,194.17
2022-11-15T07:14:01.901Z,179.83
2022-11-15T07:16:30.504Z,177.30
2022-11-15T07:18:59.424Z,174.80
2022-11-15T07:21:28.109Z,192.07
2022-11-15T07:23:58.357Z,179.83
2022-11-15T07:26:27.088Z,180.77
2022-11-15T07:28:55.784Z,174.40
2022-11-15T07:31:24.560Z,188.57
2022-11-15T07:33:53.173Z,175.07
2022-11-15T07:36:21.877Z,160.63
2022-11-15T07:38:50.616Z,174.47
2022-11-15T07:41:21.292Z,180.10
2022-11-15T07:43:52.887Z,183.50
2022-11-15T07:46:21.847Z,179.53
2022-11-15T07:48:50.649Z,196.33
2022-11-15T07:51:19.822Z,179.80
2022-11-15T07:53:48.460Z,189.50
2022-11-15T07:56:17.148Z,212.73
2022-11-15T07:58:48.632Z,172.10
2022-11-15T08:01:17.295Z,191.63
2022-11-15T08:03:45.983Z,191.13
2022-11-15T08:06:14.622Z,179.00
2022-11-15T08:08:43.229Z,171.70
2022-11-15T08:11:11.863Z,164.37
2022-11-15T08:13:40.490Z,165.60
2022-11-15T08:16:13.020Z,149.30
2022-11-15T08:18:41.596Z,141.93
2022-11-15T08:21:18.510Z,164.00
2022-11-15T08:23:47.327Z,151.03
2022-11-15T08:26:16.288Z,155.17
2022-11-15T08:28:44.952Z,138.23
2022-11-15T08:31:18.841Z,131.03
2022-11-15T08:33:47.670Z,125.17
2022-11-15T08:36:18.038Z,120.53
2022-11-15T08:38:46.777Z,125.47
2022-11-15T08:41:27.902Z,113.93
2022-11-15T08:43:56.628Z,106.80
2022-11-15T08:46:27.090Z,96.03
2022-11-15T08:48:55.859Z,96.50
2022-11-15T08:51:24.458Z,98.30
2022-11-15T08:53:53.203Z,89.47
2022-11-15T08:56:22.051Z,79.87
2022-11-15T08:58:50.706Z,93.77
2022-11-15T09:01:22.059Z,89.10
2022-11-15T09:03:52.194Z,90.87
2022-11-15T09:06:20.849Z,89.47
2022-11-15T09:08:49.567Z,74.10
2022-11-15T09:11:21.386Z,83.17
2022-11-15T09:13:50.085Z,81.30
2022-11-15T09:16:18.736Z,75.77
2022-11-15T09:18:47.458Z,69.50
2022-11-15T09:21:17.493Z,75.20
2022-11-15T09:23:46.094Z,70.63
2022-11-15T09:26:15.191Z,67.63
2022-11-15T09:28:44.010Z,64.00
2022-11-15T09:31:13.184Z,61.47
2022-11-15T09:33:46.860Z,55.80
2022-11-15T09:36:17.806Z,60.40
2022-11-15T09:38:46.471Z,62.43
2022-11-15T09:41:50.606Z,52.50
2022-11-15T09:44:37.737Z,57.13
2022-11-15T09:47:24.861Z,60.17
2022-11-15T09:49:57.954Z,59.20
2022-11-15T09:52:28.512Z,50.70
2022-11-15T09:54:57.714Z,52.07
2022-11-15T09:57:34.728Z,41.63
2022-11-15T10:00:44.170Z,40.90
2022-11-15T10:03:14.740Z,41.50
2022-11-15T10:05:45.318Z,45.23
2022-11-15T10:08:33.924Z,45.87
2022-11-15T10:11:35.636Z,41.10
2022-11-15T10:13:57.267Z,45.20
2022-11-15T10:17:08.685Z,42.00
2022-11-15T10:19:44.792Z,43.23
2022-11-15T10:22:26.572Z,37.90
2022-11-15T10:25:15.120Z,40.43
2022-11-15T10:27:45.188Z,42.83
2022-11-15T10:30:17.262Z,36.00
2022-11-15T10:32:47.997Z,40.23
2022-11-15T10:35:27.003Z,37.50
2022-11-15T10:38:08.487Z,39.10
2022-11-15T10:40:39.764Z,43.27
2022-11-15T10:43:15.927Z,39.33
2022-11-15T10:45:45.177Z,38.57
2022-11-15T10:48:27.366Z,41.43
2022-11-15T10:50:57.189Z,43.10
2022-11-15T10:53:37.898Z,46.77
2022-11-15T10:56:10.959Z,37.40
2022-11-15T10:58:41.940Z,39.00
2022-11-15T11:01:19.831Z,41.40
2022-11-15T11:04:01.755Z,39.27
2022-11-15T11:06:30.908Z,35.40
2022-11-15T11:09:01.264Z,43.30
2022-11-15T11:11:47.954Z,33.07
2022-11-15T11:14:24.040Z,37.67
2022-11-15T11:16:56.159Z,31.23
2022-11-15T11:19:40.092Z,32.40
2022-11-15T11:22:18.803Z,34.33
2022-11-15T11:24:55.097Z,27.10
2022-11-15T11:27:44.409Z,33.40
2022-11-15T11:30:17.498Z,30.80
2022-11-15T11:33:07.617Z,27.87
2022-11-15T11:35:47.459Z,29.47
2022-11-15T11:38:40.809Z,29.03
2022-11-15T11:41:18.545Z,26.17
2022-11-15T11:43:58.450Z,24.93
2022-11-15T11:46:50.385Z,22.67
2022-11-15T11:49:23.112Z,30.53
2022-11-15T11:51:56.488Z,27.87
2022-11-15T11:54:34.674Z,24.37
2022-11-15T11:57:07.735Z,27.40
2022-11-15T11:59:44.413Z,26.97
2022-11-15T12:02:20.244Z,24.10
2022-11-15T12:04:53.680Z,22.67
2022-11-15T12:07:26.672Z,28.67
2022-11-15T12:10:01.591Z,29.40
2022-11-15T12:12:37.129Z,34.07
2022-11-15T12:15:14.732Z,27.10
2022-11-15T12:17:44.639Z,24.93
2022-11-15T12:20:19.621Z,26.70
2022-11-15T12:22:54.431Z,30.87
2022-11-15T12:25:27.838Z,33.20
2022-11-15T12:27:59.333Z,32.27
2022-11-15T12:30:41.526Z,29.83
2022-11-15T12:33:36.727Z,26.60
2022-11-15T12:36:07.977Z,26.60
2022-11-15T12:38:56.756Z,26.60
2022-11-15T12:41:28.653Z,21.33
2022-11-15T12:44:00.037Z,24.70
2022-11-15T12:47:05.072Z,26.47
2022-11-15T12:49:47.913Z,24.60
2022-11-15T12:52:17.626Z,31.07
2022-11-15T12:55:20.754Z,25.10
2022-11-15T12:57:49.377Z,25.73
2022-11-15T13:00:48.148Z,23.60
2022-11-15T13:03:31.367Z,28.20
2022-11-15T13:06:10.021Z,25.40
2022-11-15T13:08:49.318Z,24.67
2022-11-15T13:11:50.210Z,26.90
2022-11-15T13:14:47.445Z,26.77
2022-11-15T13:17:47.481Z,25.73
2022-11-15T13:20:29.486Z,28.10
2022-11-15T13:23:10.098Z,25.30
2022-11-15T13:26:14.258Z,24.40
2022-11-15T13:28:47.195Z,25.33
2022-11-15T13:31:31.384Z,22.00
2022-11-15T13:34:17.724Z,23.60
2022-11-15T13:36:54.292Z,23.00
2022-11-15T13:39:31.043Z,29.40
2022-11-15T13:42:00.057Z,26.70
2022-11-15T13:44:30.812Z,26.63
2022-11-15T13:47:07.730Z,27.27
2022-11-15T13:49:38.965Z,29.77
2022-11-15T13:52:13.281Z,29.77
2022-11-15T13:54:47.925Z,34.43
2022-11-15T13:57:20.741Z,46.37
2022-11-15T13:59:52.403Z,21.27
2022-11-15T14:02:23.526Z,30.97
2022-11-15T14:04:55.567Z,27.07
2022-11-15T14:07:28.691Z,27.73
2022-11-15T14:09:57.992Z,28.50
2022-11-15T14:12:31.711Z,33.57
2022-11-15T14:15:01.139Z,35.20
2022-11-15T14:17:38.755Z,31.50
2022-11-15T14:20:37.161Z,32.47
2022-11-15T14:23:20.261Z,32.97
2022-11-15T14:25:55.878Z,35.17
2022-11-15T14:28:37.568Z,31.10
2022-11-15T14:31:14.002Z,34.93
2022-11-15T14:33:43.224Z,34.90
2022-11-15T14:36:15.796Z,35.90
2022-11-15T14:38:46.240Z,31.23
2022-11-15T14:41:22.559Z,32.37
2022-11-15T14:43:51.907Z,31.90
2022-11-15T14:46:20.525Z,33.80
2022-11-15T14:48:49.179Z,30.90
2022-11-15T14:51:19.689Z,34.80
2022-11-15T14:53:50.242Z,34.50
2022-11-15T14:56:18.891Z,34.83
2022-11-15T14:58:47.545Z,33.57
2022-11-15T15:01:19.731Z,34.87
2022-11-15T15:03:48.394Z,31.67
2022-11-15T15:06:18.503Z,31.80
2022-11-15T15:08:51.308Z,30.87
2022-11-15T15:11:24.011Z,44.50
2022-11-15T15:13:53.347Z,33.83
2022-11-15T15:16:22.674Z,37.10
2022-11-15T15:18:51.940Z,43.77
2022-11-15T15:21:24.504Z,37.50
2022-11-15T15:23:56.045Z,39.67
2022-11-15T15:26:25.198Z,46.57
2022-11-15T15:28:53.865Z,41.07
2022-11-15T15:31:22.511Z,43.00
2022-11-15T15:33:51.155Z,47.03
2022-11-15T15:36:21.009Z,37.77
2022-11-15T15:38:49.597Z,50.60
2022-11-15T15:41:20.063Z,45.40
2022-11-15T15:43:48.776Z,39.60
2022-11-15T15:46:19.613Z,51.23
2022-11-15T15:48:48.997Z,48.47
2022-11-15T15:51:20.469Z,53.70
2022-11-15T15:53:49.905Z,44.43
2022-11-15T15:56:19.964Z,41.50
2022-11-15T15:58:48.619Z,40.17
2022-11-15T16:01:17.323Z,41.23
2022-11-15T16:03:46.034Z,39.63
2022-11-15T16:06:39.270Z,44.03
2022-11-15T16:09:15.408Z,44.27
2022-11-15T16:11:48.010Z,35.07
2022-11-15T16:14:16.701Z,42.50
2022-11-15T16:16:45.357Z,45.10
2022-11-15T16:19:14.312Z,34.70
2022-11-15T16:21:42.973Z,35.57
2022-11-15T16:24:11.630Z,42.23
2022-11-15T16:26:40.721Z,37.60
2022-11-15T16:29:11.980Z,38.13
2022-11-15T16:31:40.807Z,43.53
2022-11-15T16:34:09.479Z,34.90
2022-11-15T16:36:38.603Z,41.60
2022-11-15T16:39:07.592Z,42.00
2022-11-15T16:41:36.298Z,39.97
2022-11-15T16:44:05.357Z,46.17
2022-11-15T16:46:35.542Z,46.60
2022-11-15T16:49:04.823Z,46.83
2022-11-15T16:51:33.431Z,38.97
2022-11-15T16:54:02.066Z,48.67
2022-11-15T16:56:32.007Z,39.40
2022-11-15T16:59:02.025Z,44.47
2022-11-15T17:01:32.236Z,43.23
2022-11-15T17:04:12.518Z,42.30
2022-11-15T17:06:42.025Z,46.70
2022-11-15T17:09:14.136Z,53.27
2022-11-15T17:11:43.497Z,45.00
2022-11-15T17:14:13.016Z,50.70
2022-11-15T17:16:44.387Z,50.03
2022-11-15T17:19:19.650Z,48.63
2022-11-15T17:21:50.523Z,49.07
2022-11-15T17:24:20.975Z,54.20
2022-11-15T17:26:49.786Z,56.07
2022-11-15T17:29:18.604Z,46.80
2022-11-15T17:31:47.266Z,44.17
2022-11-15T17:34:17.216Z,52.17
2022-11-15T17:36:45.870Z,49.40
2022-11-15T17:39:14.481Z,47.30
2022-11-15T17:41:43.258Z,45.27
2022-11-15T17:44:12.185Z,46.70
2022-11-15T17:46:40.853Z,52.90
2022-11-15T17:49:09.509Z,53.03
2022-11-15T17:51:39.533Z,53.47
2022-11-15T17:54:08.179Z,48.53
2022-11-15T17:56:41.504Z,63.70
2022-11-15T17:59:14.824Z,59.93
2022-11-15T18:01:45.919Z,53.87
2022-11-15T18:04:15.316Z,52.07
2022-11-15T18:06:45.388Z,58.67
2022-11-15T18:09:14.075Z,53.90
2022-11-15T18:11:44.835Z,70.40
2022-11-15T18:14:16.443Z,71.00
2022-11-15T18:16:45.166Z,52.87
2022-11-15T18:19:14.214Z,60.47
2022-11-15T18:21:57.242Z,59.13
2022-11-15T18:24:26.835Z,68.53
2022-11-15T18:26:55.464Z,87.70
2022-11-15T18:29:25.555Z,92.10
2022-11-15T18:31:56.166Z,69.80
2022-11-15T18:34:25.972Z,51.00
2022-11-15T18:36:56.098Z,53.30
2022-11-15T18:39:24.865Z,49.67
2022-11-15T18:41:53.545Z,62.40
2022-11-15T18:44:22.144Z,59.37
2022-11-15T18:46:50.965Z,59.83
2022-11-15T18:49:20.318Z,44.83
2022-11-15T18:51:49.054Z,52.33
2022-11-15T18:54:19.377Z,56.73
2022-11-15T18:56:48.494Z,54.47
2022-11-15T18:59:17.542Z,52.07
2022-11-15T19:01:48.672Z,53.37
2022-11-15T19:04:19.605Z,59.67
2022-11-15T19:06:50.651Z,57.87
2022-11-15T19:09:21.272Z,69.83
2022-11-15T19:11:52.103Z,53.87
2022-11-15T19:14:24.212Z,51.97
2022-11-15T19:16:54.643Z,54.87
2022-11-15T19:19:24.954Z,51.17
2022-11-15T19:21:54.178Z,48.77
2022-11-15T19:24:24.279Z,58.67
2022-11-15T19:26:52.930Z,54.27
2022-11-15T19:29:21.693Z,56.00
2022-11-15T19:31:50.330Z,52.70
2022-11-15T19:34:19.399Z,53.53
2022-11-15T19:36:48.178Z,55.27
2022-11-15T19:39:18.538Z,49.27
2022-11-15T19:41:50.048Z,69.93
2022-11-15T19:44:19.000Z,65.33
2022-11-15T19:46:47.876Z,59.87
2022-11-15T19:49:16.538Z,54.60
2022-11-15T19:51:47.171Z,61.10
2022-11-15T19:54:17.167Z,57.97
2022-11-15T19:56:47.153Z,54.47
2022-11-15T19:59:17.319Z,43.10
2022-11-15T20:01:45.936Z,54.30
2022-11-15T20:04:14.557Z,58.83
2022-11-15T20:06:44.102Z,51.57
2022-11-15T20:09:15.551Z,44.37
2022-11-15T20:11:44.881Z,54.53
2022-11-15T20:14:14.999Z,53.10
2022-11-15T20:16:43.915Z,49.90
2022-11-15T20:19:15.844Z,56.03
2022-11-15T20:21:44.795Z,44.80
2022-11-15T20:24:16.338Z,47.50
2022-11-15T20:26:45.036Z,46.50
2022-11-15T20:29:15.131Z,52.90
2022-11-15T20:31:43.995Z,46.87
2022-11-15T20:34:12.741Z,40.20
2022-11-15T20:36:42.991Z,48.10
2022-11-15T20:39:11.790Z,43.93
2022-11-15T20:41:40.463Z,46.13
2022-11-15T20:44:09.095Z,48.23
2022-11-15T20:46:39.197Z,45.10
2022-11-15T20:49:07.871Z,37.97
2022-11-15T20:51:36.951Z,46.00
2022-11-15T20:54:06.207Z,42.23
2022-11-15T20:56:34.884Z,30.40
2022-11-15T20:59:03.537Z,40.50
2022-11-15T21:01:32.278Z,35.90
2022-11-15T21:04:02.479Z,42.83
2022-11-15T21:06:31.538Z,43.43
2022-11-15T21:09:17.986Z,40.53
2022-11-15T21:12:04.163Z,39.77
2022-11-15T21:14:32.780Z,37.57
2022-11-15T21:17:01.473Z,35.93
2022-11-15T21:19:35.836Z,35.47
2022-11-15T21:22:06.523Z,35.53
2022-11-15T21:24:35.146Z,41.90
2022-11-15T21:27:03.859Z,40.63
2022-11-15T21:29:37.576Z,33.57
2022-11-15T21:32:07.491Z,39.20
2022-11-15T21:34:37.901Z,33.03
2022-11-15T21:37:07.034Z,35.83
2022-11-15T21:39:35.810Z,40.20
2022-11-15T21:42:04.496Z,46.27
2022-11-15T21:44:33.436Z,46.90
2022-11-15T21:47:02.201Z,38.73
2022-11-15T21:49:30.893Z,42.63
2022-11-15T21:52:00.865Z,36.17
2022-11-15T21:54:29.539Z,41.80
2022-11-15T21:56:58.600Z,47.33
2022-11-15T21:59:27.240Z,36.23
2022-11-15T22:02:13.228Z,48.73
2022-11-15T22:04:41.898Z,36.10
2022-11-15T22:07:11.907Z,37.47
2022-11-15T22:09:40.765Z,36.80
2022-11-15T22:12:09.548Z,46.37
2022-11-15T22:14:38.214Z,36.27
2022-11-15T22:17:06.801Z,34.17
2022-11-15T22:19:40.397Z,31.40
2022-11-15T22:22:17.433Z,38.00
2022-11-15T22:24:45.858Z,30.27
2022-11-15T22:27:14.275Z,33.40
2022-11-15T22:29:43.329Z,33.93
2022-11-15T22:32:11.790Z,32.30
2022-11-15T22:34:40.209Z,35.87
2022-11-15T22:37:23.842Z,36.73
2022-11-15T22:39:53.637Z,40.77
2022-11-15T22:42:23.973Z,38.27
2022-11-15T22:44:52.699Z,33.00
2022-11-15T22:47:21.160Z,32.87
2022-11-15T22:49:49.655Z,25.10
2022-11-15T22:52:18.471Z,23.83
2022-11-15T22:54:46.958Z,27.13
2022-11-15T22:57:16.783Z,27.90
2022-11-15T22:59:45.270Z,37.37
2022-11-15T23:02:13.949Z,28.93
2022-11-15T23:04:42.532Z,28.60
2022-11-15T23:07:11.179Z,27.27
2022-11-15T23:09:39.800Z,27.67
2022-11-15T23:12:27.481Z,33.50
2022-11-15T23:14:57.420Z,24.73
2022-11-15T23:17:25.900Z,32.03
2022-11-15T23:19:54.356Z,27.00
2022-11-15T23:22:40.190Z,27.97
2022-11-15T23:25:09.302Z,25.63
2022-11-15T23:27:38.010Z,28.23
2022-11-15T23:30:26.404Z,28.00
2022-11-15T23:33:12.489Z,22.80
2022-11-15T23:35:40.962Z,27.70
2022-11-15T23:38:09.427Z,28.30
2022-11-15T23:40:37.918Z,28.70
2022-11-15T23:43:06.473Z,34.03
2022-11-15T23:45:38.645Z,25.30
2022-11-15T23:48:07.566Z,24.70
2022-11-15T23:50:36.319Z,23.47
2022-11-15T23:53:04.862Z,24.97
2022-11-15T23:55:33.395Z,26.40
2022-11-15T23:58:01.913Z,28.57
